Time,TemperatureF,DewpointF,PressureIn,WindDirection,WindDirectionDegrees,WindSpeedMPH,WindSpeedGustMPH,Humidity,HourlyPrecipIn,Conditions,Clouds,dailyrainin,SolarRadiationWatts/m^2,SoftwareType,DateUTC
2013-01-10 00:01:00,40.3,37.0,30.19,East,95,0.0,0.0,88,0.00,,,0.00,0.0,custom,2013-01-10 08:01:00,
2013-01-10 00:06:00,40.2,36.9,30.19,East,95,0.0,0.0,88,0.00,,,0.00,0.0,custom,2013-01-10 08:06:00,
2013-01-10 00:11:00,40.0,36.7,30.19,East,95,0.0,0.0,88,0.00,,,0.00,0.0,custom,2013-01-10 08:11:00,
2013-01-10 00:16:00,39.9,36.6,30.19,East,95,0.0,0.0,88,0.00,,,0.00,0.0,custom,2013-01-10 08:16:00,
2013-01-10 00:21:00,39.8,36.5,30.19,East,95,0.0,0.0,88,0.00,,,0.00,0.0,custom,2013-01-10 08:21:00,
2013-01-10 00:26:00,39.6,36.3,30.19,East,95,0.0,0.0,88,0.00,,,0.00,0.0,custom,2013-01-10 08:26:00,
2013-01-10 00:31:00,39.4,36.1,30.19,East,95,0.0,0.0,88,0.00,,,0.00,0.0,custom,2013-01-10 08:31:00,
2013-01-10 00:36:00,39.3,36.0,30.19,East,95,0.0,0.0,88,0.00,,,0.00,0.0,custom,2013-01-10 08:36:00,
2013-01-10 00:41:00,39.1,36.1,30.19,East,95,0.0,0.0,89,0.00,,,0.00,0.0,custom,2013-01-10 08:41:00,
2013-01-10 00:46:00,39.0,36.0,30.19,East,95,0.0,0.0,89,0.00,,,0.00,0.0,custom,2013-01-10 08:46:00,
2013-01-10 00:51:00,38.9,35.7,30.20,East,95,0.0,0.0,88,0.00,,,0.00,0.0,custom,2013-01-10 08:51:00,
2013-01-10 00:56:00,38.7,35.7,30.20,East,95,0.0,0.0,89,0.00,,,0.00,0.0,custom,2013-01-10 08:56:00,
2013-01-10 01:01:00,38.7,35.7,30.20,East,95,0.0,0.0,89,0.00,,,0.00,0.0,custom,2013-01-10 09:01:00,
2013-01-10 01:11:00,38.5,35.5,30.19,East,95,0.0,0.0,89,0.00,,,0.00,0.0,custom,2013-01-10 09:11:00,
2013-01-10 01:16:00,38.4,35.4,30.19,East,95,0.0,0.0,89,0.00,,,0.00,0.0,custom,2013-01-10 09:16:00,
2013-01-10 01:21:00,38.3,35.3,30.19,East,95,0.0,0.0,89,0.00,,,0.00,0.0,custom,2013-01-10 09:21:00,
2013-01-10 01:26:00,38.2,35.2,30.19,East,95,0.0,0.0,89,0.00,,,0.00,0.0,custom,2013-01-10 09:26:00,
2013-01-10 01:31:00,38.3,35.3,30.19,East,95,0.0,0.0,89,0.00,,,0.00,0.0,custom,2013-01-10 09:31:00,
2013-01-10 01:36:00,38.2,35.2,30.19,East,95,0.0,0.0,89,0.00,,,0.00,0.0,custom,2013-01-10 09:36:00,
2013-01-10 01:41:00,38.2,35.2,30.19,East,95,0.0,0.0,89,0.00,,,0.00,0.0,custom,2013-01-10 09:41:00,
2013-01-10 01:46:00,38.0,35.1,30.20,East,95,0.0,0.0,89,0.00,,,0.00,0.0,custom,2013-01-10 09:46:00,
2013-01-10 01:51:00,37.8,34.9,30.20,East,95,0.0,0.0,89,0.00,,,0.00,0.0,custom,2013-01-10 09:51:00,
2013-01-10 01:56:00,37.7,34.8,30.20,East,95,0.0,0.0,89,0.00,,,0.00,0.0,custom,2013-01-10 09:56:00,
2013-01-10 02:01:00,37.7,34.8,30.20,East,95,0.0,0.0,89,0.00,,,0.00,0.0,custom,2013-01-10 10:01:00,
2013-01-10 02:06:00,37.7,34.8,30.20,East,95,0.0,0.0,89,0.00,,,0.00,0.0,custom,2013-01-10 10:06:00,
2013-01-10 02:11:00,37.5,34.6,30.20,East,95,0.0,0.0,89,0.00,,,0.00,0.0,custom,2013-01-10 10:11:00,
2013-01-10 02:16:00,37.4,34.5,30.20,East,95,0.0,0.0,89,0.00,,,0.00,0.0,custom,2013-01-10 10:16:00,
2013-01-10 02:21:00,37.2,34.3,30.20,East,95,0.0,0.0,89,0.00,,,0.00,0.0,custom,2013-01-10 10:21:00,
2013-01-10 02:26:00,37.1,34.2,30.20,East,95,0.0,0.0,89,0.00,,,0.00,0.0,custom,2013-01-10 10:26:00,
2013-01-10 02:31:00,37.1,34.2,30.20,East,95,0.0,0.0,89,0.00,,,0.00,0.0,custom,2013-01-10 10:31:00,
2013-01-10 02:36:00,37.0,34.1,30.20,East,95,0.0,0.0,89,0.00,,,0.00,0.0,custom,2013-01-10 10:36:00,
2013-01-10 02:41:00,37.0,34.1,30.20,East,95,0.0,0.0,89,0.00,,,0.00,0.0,custom,2013-01-10 10:41:00,
2013-01-10 02:46:00,37.0,34.1,30.20,East,95,0.0,0.0,89,0.00,,,0.00,0.0,custom,2013-01-10 10:46:00,
2013-01-10 02:51:00,37.0,34.1,30.20,East,95,0.0,0.0,89,0.00,,,0.00,0.0,custom,2013-01-10 10:51:00,
2013-01-10 02:56:00,36.9,34.0,30.20,East,95,0.0,0.0,89,0.00,,,0.00,0.0,custom,2013-01-10 10:56:00,
2013-01-10 03:01:00,36.9,34.0,30.20,East,95,0.0,0.0,89,0.00,,,0.00,0.0,custom,2013-01-10 11:01:00,
2013-01-10 03:06:00,36.9,34.0,30.20,East,95,0.0,0.0,89,0.00,,,0.00,0.0,custom,2013-01-10 11:06:00,
2013-01-10 03:11:00,36.9,34.0,30.20,East,95,0.0,0.0,89,0.00,,,0.00,0.0,custom,2013-01-10 11:11:00,
2013-01-10 03:16:00,36.8,33.9,30.20,East,95,0.0,0.0,89,0.00,,,0.00,0.0,custom,2013-01-10 11:16:00,
2013-01-10 03:21:00,36.8,33.9,30.20,East,95,0.0,0.0,89,0.00,,,0.00,0.0,custom,2013-01-10 11:21:00,
2013-01-10 03:26:00,36.7,33.8,30.20,East,95,0.0,0.0,89,0.00,,,0.00,0.0,custom,2013-01-10 11:26:00,
2013-01-10 03:31:00,36.7,33.8,30.20,East,95,0.0,0.0,89,0.00,,,0.00,0.0,custom,2013-01-10 11:31:00,
2013-01-10 03:36:00,36.7,33.8,30.20,East,95,0.0,0.0,89,0.00,,,0.00,0.0,custom,2013-01-10 11:36:00,
2013-01-10 03:41:00,36.9,33.7,30.20,East,95,0.0,0.0,88,0.00,,,0.00,0.0,custom,2013-01-10 11:41:00,
2013-01-10 03:46:00,37.0,33.8,30.20,East,95,0.0,0.0,88,0.00,,,0.00,0.0,custom,2013-01-10 11:46:00,
2013-01-10 03:51:00,37.1,33.9,30.20,East,95,0.0,0.0,88,0.00,,,0.00,0.0,custom,2013-01-10 11:51:00,
2013-01-10 03:56:00,37.3,34.1,30.20,East,95,0.0,0.0,88,0.00,,,0.00,0.0,custom,2013-01-10 11:56:00,
2013-01-10 04:01:00,37.4,34.2,30.20,East,95,0.0,0.0,88,0.00,,,0.00,0.0,custom,2013-01-10 12:01:00,
2013-01-10 04:06:00,37.5,34.3,30.20,East,95,0.0,0.0,88,0.00,,,0.00,0.0,custom,2013-01-10 12:06:00,
2013-01-10 04:11:00,37.6,34.4,30.20,East,95,0.0,0.0,88,0.00,,,0.00,0.0,custom,2013-01-10 12:11:00,
2013-01-10 04:16:00,37.7,34.5,30.20,East,95,0.0,0.0,88,0.00,,,0.00,0.0,custom,2013-01-10 12:16:00,
2013-01-10 04:21:00,37.8,34.6,30.20,East,95,0.0,0.0,88,0.00,,,0.00,0.0,custom,2013-01-10 12:21:00,
2013-01-10 04:26:00,38.0,34.8,30.20,East,95,0.0,0.0,88,0.00,,,0.00,0.0,custom,2013-01-10 12:26:00,
2013-01-10 04:31:00,38.2,34.7,30.19,East,95,0.0,0.0,87,0.00,,,0.00,0.0,custom,2013-01-10 12:31:00,
2013-01-10 04:36:00,38.5,35.0,30.20,East,95,0.0,0.0,87,0.00,,,0.00,0.0,custom,2013-01-10 12:36:00,
2013-01-10 04:41:00,38.6,35.1,30.20,East,95,0.0,0.0,87,0.00,,,0.00,0.0,custom,2013-01-10 12:41:00,
2013-01-10 04:46:00,38.7,35.5,30.19,East,95,0.0,0.0,88,0.00,,,0.00,0.0,custom,2013-01-10 12:46:00,
2013-01-10 04:51:00,38.7,35.5,30.19,East,95,0.0,0.0,88,0.00,,,0.00,0.0,custom,2013-01-10 12:51:00,
2013-01-10 04:56:00,38.7,35.5,30.19,East,95,0.0,0.0,88,0.00,,,0.00,0.0,custom,2013-01-10 12:56:00,
2013-01-10 05:01:00,38.6,35.6,30.19,East,95,0.0,0.0,89,0.00,,,0.00,0.0,custom,2013-01-10 13:01:00,
2013-01-10 05:06:00,38.4,35.4,30.19,East,95,0.0,0.0,89,0.00,,,0.00,0.0,custom,2013-01-10 13:06:00,
2013-01-10 05:11:00,38.3,35.3,30.19,East,95,0.0,0.0,89,0.00,,,0.00,0.0,custom,2013-01-10 13:11:00,
2013-01-10 05:16:00,38.3,35.3,30.20,East,95,0.0,0.0,89,0.00,,,0.00,0.0,custom,2013-01-10 13:16:00,
2013-01-10 05:21:00,38.2,35.2,30.20,East,95,0.0,0.0,89,0.00,,,0.00,0.0,custom,2013-01-10 13:21:00,
2013-01-10 05:26:00,38.0,35.1,30.20,East,95,0.0,0.0,89,0.00,,,0.00,0.0,custom,2013-01-10 13:26:00,
2013-01-10 05:31:00,37.9,35.0,30.20,East,95,0.0,0.0,89,0.00,,,0.00,0.0,custom,2013-01-10 13:31:00,
2013-01-10 05:36:00,37.9,35.0,30.20,East,95,0.0,0.0,89,0.00,,,0.00,0.0,custom,2013-01-10 13:36:00,
2013-01-10 05:41:00,37.8,34.9,30.20,East,95,0.0,0.0,89,0.00,,,0.00,0.0,custom,2013-01-10 13:41:00,
2013-01-10 05:46:00,37.8,34.9,30.20,East,95,0.0,0.0,89,0.00,,,0.00,0.0,custom,2013-01-10 13:46:00,
2013-01-10 05:51:00,37.8,34.9,30.20,East,95,0.0,0.0,89,0.00,,,0.00,0.0,custom,2013-01-10 13:51:00,
2013-01-10 05:56:00,37.7,34.8,30.20,East,95,0.0,0.0,89,0.00,,,0.00,0.0,custom,2013-01-10 13:56:00,
2013-01-10 06:01:00,37.6,34.7,30.20,East,95,0.0,0.0,89,0.00,,,0.00,0.0,custom,2013-01-10 14:01:00,
2013-01-10 06:06:00,37.5,34.6,30.20,East,95,0.0,0.0,89,0.00,,,0.00,0.0,custom,2013-01-10 14:06:00,
2013-01-10 06:11:00,37.4,34.5,30.21,East,95,0.0,0.0,89,0.00,,,0.00,0.0,custom,2013-01-10 14:11:00,
2013-01-10 06:16:00,37.3,34.4,30.21,East,95,0.0,0.0,89,0.00,,,0.00,0.0,custom,2013-01-10 14:16:00,
2013-01-10 06:21:00,37.3,34.4,30.21,East,95,0.0,0.0,89,0.00,,,0.00,0.0,custom,2013-01-10 14:21:00,
2013-01-10 06:26:00,37.2,34.3,30.21,East,95,0.0,0.0,89,0.00,,,0.00,0.0,custom,2013-01-10 14:26:00,
2013-01-10 06:31:00,37.1,34.2,30.21,East,95,0.0,0.0,89,0.00,,,0.00,0.0,custom,2013-01-10 14:31:00,
2013-01-10 06:36:00,37.0,34.1,30.21,East,95,0.0,0.0,89,0.00,,,0.00,0.0,custom,2013-01-10 14:36:00,
2013-01-10 06:41:00,37.0,34.1,30.21,East,95,0.0,0.0,89,0.00,,,0.00,0.0,custom,2013-01-10 14:41:00,
2013-01-10 06:46:00,37.0,34.1,30.21,East,95,0.0,0.0,89,0.00,,,0.00,0.0,custom,2013-01-10 14:46:00,
2013-01-10 06:51:00,37.0,34.1,30.21,East,95,0.0,0.0,89,0.00,,,0.00,0.0,custom,2013-01-10 14:51:00,
2013-01-10 06:56:00,37.0,34.1,30.21,East,95,0.0,0.0,89,0.00,,,0.00,0.0,custom,2013-01-10 14:56:00,
2013-01-10 07:01:00,37.0,34.1,30.21,East,95,0.0,0.0,89,0.00,,,0.00,0.0,custom,2013-01-10 15:01:00,
2013-01-10 07:06:00,37.0,34.1,30.21,East,95,0.0,0.0,89,0.00,,,0.00,0.0,custom,2013-01-10 15:06:00,
2013-01-10 07:11:00,36.9,33.7,30.21,East,95,0.0,0.0,88,0.00,,,0.00,0.0,custom,2013-01-10 15:11:00,
2013-01-10 07:16:00,36.9,33.7,30.21,East,95,0.0,0.0,88,0.00,,,0.00,5.0,custom,2013-01-10 15:16:00,
2013-01-10 07:21:00,36.9,33.7,30.21,East,95,0.0,0.0,88,0.00,,,0.00,5.0,custom,2013-01-10 15:21:00,
2013-01-10 07:26:00,36.9,33.7,30.21,East,95,0.0,0.0,88,0.00,,,0.00,7.0,custom,2013-01-10 15:26:00,
2013-01-10 07:31:00,36.9,33.7,30.21,East,95,0.0,0.0,88,0.00,,,0.00,7.0,custom,2013-01-10 15:31:00,
2013-01-10 07:36:00,36.9,33.7,30.21,East,95,0.0,0.0,88,0.00,,,0.00,11.0,custom,2013-01-10 15:36:00,
2013-01-10 07:41:00,36.9,33.7,30.21,East,95,0.0,0.0,88,0.00,,,0.00,19.0,custom,2013-01-10 15:41:00,
2013-01-10 07:46:00,37.0,33.8,30.21,East,95,0.0,0.0,88,0.00,,,0.00,21.0,custom,2013-01-10 15:46:00,
2013-01-10 07:51:00,37.0,33.8,30.22,East,95,0.0,0.0,88,0.00,,,0.00,23.0,custom,2013-01-10 15:51:00,
2013-01-10 07:56:00,37.1,33.9,30.22,East,95,0.0,0.0,88,0.00,,,0.00,19.0,custom,2013-01-10 15:56:00,
2013-01-10 08:01:00,37.3,34.1,30.22,East,95,0.0,0.0,88,0.00,,,0.00,19.0,custom,2013-01-10 16:01:00,
2013-01-10 08:06:00,37.5,34.3,30.22,East,95,0.0,0.0,88,0.00,,,0.00,19.0,custom,2013-01-10 16:06:00,
2013-01-10 08:11:00,37.7,34.2,30.22,East,95,0.0,0.0,87,0.00,,,0.00,35.0,custom,2013-01-10 16:11:00,
2013-01-10 08:16:00,37.9,34.4,30.22,East,95,0.0,0.0,87,0.00,,,0.00,77.0,custom,2013-01-10 16:16:00,
2013-01-10 08:21:00,38.2,34.7,30.22,East,95,0.0,0.0,87,0.00,,,0.00,72.0,custom,2013-01-10 16:21:00,
2013-01-10 08:26:00,38.6,35.1,30.23,East,95,0.0,0.0,87,0.00,,,0.00,100.0,custom,2013-01-10 16:26:00,
2013-01-10 08:31:00,39.0,35.5,30.23,East,95,0.0,0.0,87,0.00,,,0.00,33.0,custom,2013-01-10 16:31:00,
2013-01-10 08:36:00,39.5,36.0,30.22,East,95,0.0,0.0,87,0.00,,,0.00,33.0,custom,2013-01-10 16:36:00,
2013-01-10 08:41:00,40.0,36.7,30.22,East,95,0.0,0.0,88,0.00,,,0.00,35.0,custom,2013-01-10 16:41:00,
2013-01-10 08:46:00,40.6,37.6,30.23,East,95,0.0,0.0,89,0.00,,,0.00,51.0,custom,2013-01-10 16:46:00,
2013-01-10 08:51:00,41.1,38.1,30.23,East,95,0.0,0.0,89,0.00,,,0.00,79.0,custom,2013-01-10 16:51:00,
2013-01-10 08:56:00,41.6,38.6,30.23,East,95,0.0,0.0,89,0.00,,,0.00,132.0,custom,2013-01-10 16:56:00,
2013-01-10 09:01:00,42.1,39.1,30.23,East,96,0.0,1.0,89,0.00,,,0.00,63.0,custom,2013-01-10 17:01:00,
2013-01-10 09:06:00,42.9,39.3,30.23,South,184,0.0,0.0,87,0.00,,,0.00,77.0,custom,2013-01-10 17:06:00,
2013-01-10 09:11:00,43.7,39.5,30.23,NW,307,0.0,0.0,85,0.00,,,0.00,65.0,custom,2013-01-10 17:11:00,
2013-01-10 09:16:00,44.2,39.7,30.23,NW,307,0.0,0.0,84,0.00,,,0.00,60.0,custom,2013-01-10 17:16:00,
2013-01-10 09:21:00,44.6,39.5,30.22,WNW,290,0.0,0.0,82,0.00,,,0.00,40.0,custom,2013-01-10 17:21:00,
2013-01-10 09:26:00,45.0,39.2,30.23,NNW,342,1.0,0.0,80,0.00,,,0.00,40.0,custom,2013-01-10 17:26:00,
2013-01-10 09:31:00,45.4,39.6,30.22,NNE,33,1.0,0.0,80,0.00,,,0.00,42.0,custom,2013-01-10 17:31:00,
2013-01-10 09:36:00,45.8,39.7,30.22,NE,34,1.0,0.0,79,0.00,,,0.00,104.0,custom,2013-01-10 17:36:00,
2013-01-10 09:41:00,46.1,39.6,30.22,NW,317,1.0,0.0,78,0.00,,,0.00,134.0,custom,2013-01-10 17:41:00,
2013-01-10 09:46:00,46.6,39.8,30.22,WNW,296,0.0,5.0,77,0.00,,,0.00,104.0,custom,2013-01-10 17:46:00,
2013-01-10 09:51:00,47.1,39.6,30.22,NNW,333,1.0,1.0,75,0.00,,,0.00,160.0,custom,2013-01-10 17:51:00,
2013-01-10 09:56:00,47.3,39.8,30.23,WNW,285,1.0,0.0,75,0.00,,,0.00,76.0,custom,2013-01-10 17:56:00,
2013-01-10 10:01:00,47.2,37.9,30.23,West,278,1.0,2.0,70,0.00,,,0.00,74.0,custom,2013-01-10 18:01:00,
2013-01-10 10:06:00,47.0,37.7,30.23,North,360,2.0,2.0,70,0.00,,,0.00,76.0,custom,2013-01-10 18:06:00,
2013-01-10 10:11:00,46.9,37.3,30.23,NNW,334,2.0,2.0,69,0.00,,,0.00,113.0,custom,2013-01-10 18:11:00,
2013-01-10 10:16:00,47.1,37.5,30.23,North,355,2.0,3.0,69,0.00,,,0.00,199.0,custom,2013-01-10 18:16:00,
2013-01-10 10:21:00,47.4,38.1,30.23,West,275,2.0,0.0,70,0.00,,,0.00,135.0,custom,2013-01-10 18:21:00,
2013-01-10 10:26:00,47.5,37.8,30.23,West,279,2.0,0.0,69,0.00,,,0.00,139.0,custom,2013-01-10 18:26:00,
2013-01-10 10:31:00,47.7,38.4,30.23,SW,222,1.0,0.0,70,0.00,,,0.00,165.0,custom,2013-01-10 18:31:00,
2013-01-10 10:36:00,48.1,38.4,30.22,NNW,343,1.0,1.0,69,0.00,,,0.00,299.0,custom,2013-01-10 18:36:00,
2013-01-10 10:46:00,48.9,38.8,30.22,North,355,2.0,2.0,68,0.00,,,0.00,383.0,custom,2013-01-10 18:46:00,
2013-01-10 10:51:00,49.3,38.0,30.22,North,360,1.0,1.0,65,0.00,,,0.00,438.0,custom,2013-01-10 18:51:00,
2013-01-10 10:56:00,49.5,38.2,30.22,WNW,303,2.0,2.0,65,0.00,,,0.00,482.0,custom,2013-01-10 18:56:00,
2013-01-10 11:01:00,49.8,37.7,30.21,West,273,1.0,1.0,63,0.00,,,0.00,441.0,custom,2013-01-10 19:01:00,
2013-01-10 11:06:00,49.9,37.4,30.21,WNW,294,1.0,0.0,62,0.00,,,0.00,497.0,custom,2013-01-10 19:06:00,
2013-01-10 11:11:00,50.2,38.5,30.21,NNE,15,1.0,1.0,64,0.00,,,0.00,497.0,custom,2013-01-10 19:11:00,
2013-01-10 11:16:00,50.5,37.1,30.21,WNW,302,1.0,1.0,60,0.00,,,0.00,501.0,custom,2013-01-10 19:16:00,
2013-01-10 11:21:00,50.7,36.5,30.21,North,11,2.0,0.0,58,0.00,,,0.00,522.0,custom,2013-01-10 19:21:00,
2013-01-10 11:26:00,50.7,36.0,30.21,NNW,342,2.0,4.0,57,0.00,,,0.00,538.0,custom,2013-01-10 19:26:00,
2013-01-10 11:36:00,50.7,36.5,30.20,WNW,286,2.0,4.0,58,0.00,,,0.00,561.0,custom,2013-01-10 19:36:00,
2013-01-10 11:44:00,51.0,36.7,30.20,NW,317,2.0,3.0,58,0.00,,,0.00,554.0,custom,2013-01-10 19:44:00,
2013-01-10 11:51:00,51.4,36.7,30.20,NNW,337,1.0,1.0,57,0.00,,,0.00,650.0,custom,2013-01-10 19:51:00,
2013-01-10 11:56:00,51.7,37.4,30.19,NE,45,1.0,0.0,58,0.00,,,0.00,645.0,custom,2013-01-10 19:56:00,
2013-01-10 12:01:00,52.1,37.3,30.19,WSW,248,1.0,1.0,57,0.00,,,0.00,603.0,custom,2013-01-10 20:01:00,
2013-01-10 12:06:00,52.4,37.6,30.19,WNW,291,1.0,0.0,57,0.00,,,0.00,608.0,custom,2013-01-10 20:06:00,
2013-01-10 12:11:00,52.6,37.4,30.19,WNW,296,1.0,1.0,56,0.00,,,0.00,671.0,custom,2013-01-10 20:11:00,
2013-01-10 12:16:00,52.9,37.6,30.19,West,268,1.0,0.0,56,0.00,,,0.00,768.0,custom,2013-01-10 20:16:00,
2013-01-10 12:21:00,52.8,37.1,30.19,NW,314,1.0,1.0,55,0.00,,,0.00,199.0,custom,2013-01-10 20:21:00,
2013-01-10 12:26:00,52.5,37.7,30.18,NNW,343,1.0,3.0,57,0.00,,,0.00,680.0,custom,2013-01-10 20:26:00,
2013-01-10 12:31:00,52.1,38.2,30.18,WNW,298,3.0,4.0,59,0.00,,,0.00,622.0,custom,2013-01-10 20:31:00,
2013-01-10 12:36:00,51.9,38.0,30.18,NNW,335,3.0,5.0,59,0.00,,,0.00,571.0,custom,2013-01-10 20:36:00,
2013-01-10 12:46:00,51.1,37.3,30.18,NNW,329,3.0,5.0,59,0.00,,,0.00,592.0,custom,2013-01-10 20:46:00,
2013-01-10 12:56:00,50.5,37.1,30.18,NNE,26,3.0,4.0,60,0.00,,,0.00,596.0,custom,2013-01-10 20:56:00,
2013-01-10 13:01:00,50.2,37.7,30.18,NNW,336,2.0,3.0,62,0.00,,,0.00,264.0,custom,2013-01-10 21:01:00,
2013-01-10 13:06:00,50.0,37.1,30.18,WNW,302,2.0,0.0,61,0.00,,,0.00,102.0,custom,2013-01-10 21:06:00,
2013-01-10 13:11:00,49.5,36.6,30.17,North,355,2.0,3.0,61,0.00,,,0.00,91.0,custom,2013-01-10 21:11:00,
2013-01-10 13:16:00,49.1,36.6,30.17,North,11,2.0,4.0,62,0.00,,,0.00,65.0,custom,2013-01-10 21:16:00,
2013-01-10 13:21:00,48.8,36.4,30.17,NNW,343,2.0,0.0,62,0.00,,,0.00,197.0,custom,2013-01-10 21:21:00,
2013-01-10 13:26:00,49.0,37.0,30.17,North,360,2.0,4.0,63,0.00,,,0.00,441.0,custom,2013-01-10 21:26:00,
2013-01-10 13:31:00,49.5,37.0,30.17,NW,310,2.0,2.0,62,0.00,,,0.00,306.0,custom,2013-01-10 21:31:00,
2013-01-10 13:36:00,49.8,36.9,30.17,WNW,296,2.0,2.0,61,0.00,,,0.00,529.0,custom,2013-01-10 21:36:00,
2013-01-10 13:44:00,50.0,36.7,30.17,NNW,348,3.0,3.0,60,0.00,,,0.00,193.0,custom,2013-01-10 21:44:00,
2013-01-10 13:51:00,50.5,37.6,30.17,WNW,298,1.0,2.0,61,0.00,,,0.00,206.0,custom,2013-01-10 21:51:00,
2013-01-10 13:56:00,51.1,37.3,30.17,North,5,1.0,5.0,59,0.00,,,0.00,149.0,custom,2013-01-10 21:56:00,
2013-01-10 14:01:00,50.9,37.1,30.17,North,355,3.0,4.0,59,0.00,,,0.00,163.0,custom,2013-01-10 22:01:00,
2013-01-10 14:06:00,50.6,37.7,30.17,North,355,3.0,4.0,61,0.00,,,0.00,123.0,custom,2013-01-10 22:06:00,
2013-01-10 14:11:00,50.5,37.1,30.17,NE,42,2.0,2.0,60,0.00,,,0.00,111.0,custom,2013-01-10 22:11:00,
2013-01-10 14:16:00,50.4,37.5,30.17,North,360,3.0,3.0,61,0.00,,,0.00,118.0,custom,2013-01-10 22:16:00,
2013-01-10 14:21:00,50.4,37.0,30.18,NNE,19,2.0,2.0,60,0.00,,,0.00,120.0,custom,2013-01-10 22:21:00,
2013-01-10 14:26:00,50.2,36.9,30.18,North,360,3.0,4.0,60,0.00,,,0.00,105.0,custom,2013-01-10 22:26:00,
2013-01-10 14:31:00,50.2,36.9,30.18,WNW,294,3.0,3.0,60,0.00,,,0.00,135.0,custom,2013-01-10 22:31:00,
2013-01-10 14:41:00,50.4,37.0,30.18,NW,322,2.0,2.0,60,0.00,,,0.00,88.0,custom,2013-01-10 22:41:00,
2013-01-10 14:46:00,50.4,37.0,30.18,NNW,341,2.0,4.0,60,0.00,,,0.00,91.0,custom,2013-01-10 22:46:00,
2013-01-10 14:51:00,50.4,37.0,30.18,NNE,17,2.0,2.0,60,0.00,,,0.00,141.0,custom,2013-01-10 22:51:00,
2013-01-10 14:59:00,50.5,37.1,30.18,WNW,296,3.0,3.0,60,0.00,,,0.00,151.0,custom,2013-01-10 22:59:00,
2013-01-10 15:06:00,50.5,36.7,30.18,NNW,348,2.0,0.0,59,0.00,,,0.00,121.0,custom,2013-01-10 23:06:00,
2013-01-10 15:11:00,50.6,37.2,30.18,NNE,28,1.0,3.0,60,0.00,,,0.00,125.0,custom,2013-01-10 23:11:00,
2013-01-10 15:16:00,50.6,37.2,30.18,North,10,2.0,3.0,60,0.00,,,0.00,153.0,custom,2013-01-10 23:16:00,
2013-01-10 15:21:00,50.7,37.3,30.18,WNW,299,2.0,2.0,60,0.00,,,0.00,88.0,custom,2013-01-10 23:21:00,
2013-01-10 15:26:00,50.6,37.7,30.18,West,281,2.0,6.0,61,0.00,,,0.00,63.0,custom,2013-01-10 23:26:00,
2013-01-10 15:31:00,50.5,37.1,30.18,NNE,20,2.0,6.0,60,0.00,,,0.00,74.0,custom,2013-01-10 23:31:00,
2013-01-10 15:36:00,50.4,36.6,30.18,WNW,295,2.0,0.0,59,0.00,,,0.00,91.0,custom,2013-01-10 23:36:00,
2013-01-10 15:41:00,50.3,36.1,30.18,North,9,2.0,2.0,58,0.00,,,0.00,54.0,custom,2013-01-10 23:41:00,
2013-01-10 15:46:00,50.0,36.2,30.19,NNW,334,2.0,0.0,59,0.00,,,0.00,44.0,custom,2013-01-10 23:46:00,
2013-01-10 15:51:00,49.8,36.1,30.19,NNE,19,2.0,3.0,59,0.00,,,0.00,33.0,custom,2013-01-10 23:51:00,
2013-01-10 15:59:00,49.6,35.9,30.19,North,9,2.0,2.0,59,0.00,,,0.00,42.0,custom,2013-01-10 23:59:00,
2013-01-10 16:06:00,49.6,36.7,30.19,NW,317,1.0,0.0,61,0.00,,,0.00,100.0,custom,2013-01-11 00:06:00,
2013-01-10 16:11:00,49.6,36.7,30.19,NNE,32,1.0,1.0,61,0.00,,,0.00,84.0,custom,2013-01-11 00:11:00,
2013-01-10 16:16:00,49.8,36.9,30.19,NW,309,1.0,0.0,61,0.00,,,0.00,67.0,custom,2013-01-11 00:16:00,
2013-01-10 16:21:00,50.0,37.5,30.19,WSW,253,1.0,0.0,62,0.00,,,0.00,58.0,custom,2013-01-11 00:21:00,
2013-01-10 16:26:00,50.0,37.5,30.20,WSW,247,0.0,0.0,62,0.00,,,0.00,58.0,custom,2013-01-11 00:26:00,
2013-01-10 16:31:00,50.0,37.9,30.20,South,176,0.0,2.0,63,0.00,,,0.00,49.0,custom,2013-01-11 00:31:00,
2013-01-10 16:36:00,49.9,37.0,30.20,West,275,1.0,1.0,61,0.00,,,0.00,37.0,custom,2013-01-11 00:36:00,
2013-01-10 16:41:00,49.7,37.2,30.20,West,279,1.0,0.0,62,0.00,,,0.00,33.0,custom,2013-01-11 00:41:00,
2013-01-10 16:51:00,49.1,37.5,30.20,WSW,240,0.0,0.0,64,0.00,,,0.00,25.0,custom,2013-01-11 00:51:00,
2013-01-10 16:56:00,48.8,37.6,30.20,SW,223,0.0,0.0,65,0.00,,,0.00,11.0,custom,2013-01-11 00:56:00,
2013-01-10 17:01:00,48.5,37.3,30.20,SW,223,0.0,0.0,65,0.00,,,0.00,9.0,custom,2013-01-11 01:01:00,
2013-01-10 17:06:00,48.1,37.3,30.20,SW,223,0.0,0.0,66,0.00,,,0.00,5.0,custom,2013-01-11 01:06:00,
2013-01-10 17:11:00,47.7,37.3,30.20,SSE,167,0.0,0.0,67,0.00,,,0.00,0.0,custom,2013-01-11 01:11:00,
2013-01-10 17:16:00,47.4,37.4,30.20,SSE,167,0.0,1.0,68,0.00,,,0.00,0.0,custom,2013-01-11 01:16:00,
2013-01-10 17:21:00,47.1,37.5,30.20,SSE,150,0.0,1.0,69,0.00,,,0.00,0.0,custom,2013-01-11 01:21:00,
2013-01-10 17:26:00,46.8,37.2,30.21,SSE,151,0.0,0.0,69,0.00,,,0.00,0.0,custom,2013-01-11 01:26:00,
2013-01-10 17:31:00,46.5,37.3,30.21,SSE,150,0.0,0.0,70,0.00,,,0.00,0.0,custom,2013-01-11 01:31:00,
2013-01-10 17:36:00,46.3,37.4,30.21,SSE,153,0.0,0.0,71,0.00,,,0.00,0.0,custom,2013-01-11 01:36:00,
2013-01-10 17:41:00,46.0,37.1,30.21,SSE,153,0.0,0.0,71,0.00,,,0.00,0.0,custom,2013-01-11 01:41:00,
2013-01-10 17:46:00,45.8,37.3,30.21,SSE,153,0.0,0.0,72,0.00,,,0.00,0.0,custom,2013-01-11 01:46:00,
2013-01-10 17:51:00,45.5,37.0,30.22,SSE,153,0.0,0.0,72,0.00,,,0.00,0.0,custom,2013-01-11 01:51:00,
2013-01-10 17:56:00,45.3,36.8,30.21,SSE,153,0.0,0.0,72,0.00,,,0.00,0.0,custom,2013-01-11 01:56:00,
2013-01-10 18:01:00,45.2,37.1,30.22,SW,216,0.0,0.0,73,0.00,,,0.00,0.0,custom,2013-01-11 02:01:00,
2013-01-10 18:06:00,45.0,37.2,30.22,South,179,0.0,0.0,74,0.00,,,0.00,0.0,custom,2013-01-11 02:06:00,
2013-01-10 18:11:00,45.0,37.2,30.22,SSW,200,0.0,0.0,74,0.00,,,0.00,0.0,custom,2013-01-11 02:11:00,
2013-01-10 18:21:00,44.9,37.5,30.23,North,355,0.0,0.0,75,0.00,,,0.00,0.0,custom,2013-01-11 02:21:00,
2013-01-10 18:26:00,44.7,37.3,30.23,West,269,0.0,0.0,75,0.00,,,0.00,0.0,custom,2013-01-11 02:26:00,
2013-01-10 18:31:00,44.6,37.5,30.23,South,184,0.0,0.0,76,0.00,,,0.00,0.0,custom,2013-01-11 02:31:00,
2013-01-10 18:36:00,44.6,37.5,30.23,South,182,0.0,0.0,76,0.00,,,0.00,0.0,custom,2013-01-11 02:36:00,
2013-01-10 18:46:00,44.5,37.4,30.23,WNW,298,0.0,0.0,76,0.00,,,0.00,0.0,custom,2013-01-11 02:46:00,
2013-01-10 18:51:00,44.4,37.3,30.23,West,281,0.0,0.0,76,0.00,,,0.00,0.0,custom,2013-01-11 02:51:00,
2013-01-10 18:56:00,44.3,37.6,30.24,West,280,0.0,0.0,77,0.00,,,0.00,0.0,custom,2013-01-11 02:56:00,
2013-01-10 19:01:00,44.3,37.2,30.24,West,280,0.0,1.0,76,0.00,,,0.00,0.0,custom,2013-01-11 03:01:00,
2013-01-10 19:06:00,44.2,37.1,30.24,West,280,0.0,0.0,76,0.00,,,0.00,0.0,custom,2013-01-11 03:06:00,
2013-01-10 19:11:00,44.2,37.5,30.24,North,360,0.0,0.0,77,0.00,,,0.00,0.0,custom,2013-01-11 03:11:00,
2013-01-10 19:16:00,44.1,37.4,30.24,North,360,0.0,0.0,77,0.00,,,0.00,0.0,custom,2013-01-11 03:16:00,
2013-01-10 19:21:00,44.0,37.3,30.24,North,360,0.0,0.0,77,0.00,,,0.00,0.0,custom,2013-01-11 03:21:00,
2013-01-10 19:26:00,43.9,37.2,30.24,North,360,0.0,0.0,77,0.00,,,0.00,0.0,custom,2013-01-11 03:26:00,
2013-01-10 19:31:00,43.8,37.4,30.24,North,360,0.0,0.0,78,0.00,,,0.00,0.0,custom,2013-01-11 03:31:00,
2013-01-10 19:36:00,43.8,37.4,30.24,North,360,0.0,0.0,78,0.00,,,0.00,0.0,custom,2013-01-11 03:36:00,
2013-01-10 19:46:00,43.8,37.4,30.24,ESE,107,0.0,0.0,78,0.00,,,0.00,0.0,custom,2013-01-11 03:46:00,
2013-01-10 19:56:00,43.7,37.3,30.25,ESE,107,0.0,0.0,78,0.00,,,0.00,0.0,custom,2013-01-11 03:56:00,
2013-01-10 20:01:00,43.6,37.2,30.25,East,92,0.0,0.0,78,0.00,,,0.00,0.0,custom,2013-01-11 04:01:00,
2013-01-10 20:06:00,43.5,37.1,30.25,East,93,0.0,0.0,78,0.00,,,0.00,0.0,custom,2013-01-11 04:06:00,
2013-01-10 20:11:00,43.4,37.0,30.25,East,93,0.0,0.0,78,0.00,,,0.00,0.0,custom,2013-01-11 04:11:00,
2013-01-10 20:16:00,43.3,37.2,30.25,North,11,0.0,0.0,79,0.00,,,0.00,0.0,custom,2013-01-11 04:16:00,
2013-01-10 20:21:00,43.2,36.8,30.25,North,11,0.0,0.0,78,0.00,,,0.00,0.0,custom,2013-01-11 04:21:00,
2013-01-10 20:26:00,43.1,36.7,30.25,North,11,0.0,0.0,78,0.00,,,0.00,0.0,custom,2013-01-11 04:26:00,
2013-01-10 20:31:00,42.8,36.4,30.25,North,11,0.0,0.0,78,0.00,,,0.00,0.0,custom,2013-01-11 04:31:00,
2013-01-10 20:36:00,42.7,36.6,30.25,NNE,18,0.0,0.0,79,0.00,,,0.00,0.0,custom,2013-01-11 04:36:00,
2013-01-10 20:41:00,42.5,36.5,30.26,NNE,19,0.0,0.0,79,0.00,,,0.00,0.0,custom,2013-01-11 04:41:00,
2013-01-10 20:46:00,42.4,36.4,30.26,NNE,19,0.0,0.0,79,0.00,,,0.00,0.0,custom,2013-01-11 04:46:00,
2013-01-10 20:51:00,42.3,36.3,30.26,NNE,19,0.0,0.0,79,0.00,,,0.00,0.0,custom,2013-01-11 04:51:00,
2013-01-10 20:56:00,42.1,36.1,30.26,NNE,18,0.0,0.0,79,0.00,,,0.00,0.0,custom,2013-01-11 04:56:00,
2013-01-10 21:04:00,42.0,36.0,30.27,NNE,19,0.0,0.0,79,0.00,,,0.00,0.0,custom,2013-01-11 05:04:00,
2013-01-10 21:06:00,41.9,35.9,30.27,NNE,19,0.0,0.0,79,0.00,,,0.00,0.0,custom,2013-01-11 05:06:00,
2013-01-10 21:16:00,41.8,35.8,30.27,NNE,18,0.0,0.0,79,0.00,,,0.00,0.0,custom,2013-01-11 05:16:00,
2013-01-10 21:21:00,41.7,35.7,30.27,NNE,17,0.0,0.0,79,0.00,,,0.00,0.0,custom,2013-01-11 05:21:00,
2013-01-10 21:26:00,41.7,35.7,30.27,NNW,330,0.0,0.0,79,0.00,,,0.00,0.0,custom,2013-01-11 05:26:00,
2013-01-10 21:31:00,41.7,35.4,30.27,NNW,330,0.0,0.0,78,0.00,,,0.00,0.0,custom,2013-01-11 05:31:00,
2013-01-10 21:36:00,41.8,35.5,30.28,WNW,291,0.0,0.0,78,0.00,,,0.00,0.0,custom,2013-01-11 05:36:00,
2013-01-10 21:41:00,41.8,35.1,30.28,WNW,296,0.0,0.0,77,0.00,,,0.00,0.0,custom,2013-01-11 05:41:00,
2013-01-10 21:46:00,41.8,35.1,30.28,WNW,296,0.0,0.0,77,0.00,,,0.00,0.0,custom,2013-01-11 05:46:00,
2013-01-10 21:51:00,41.8,35.1,30.28,WNW,295,0.0,0.0,77,0.00,,,0.00,0.0,custom,2013-01-11 05:51:00,
2013-01-10 21:56:00,41.7,35.0,30.28,WNW,296,0.0,0.0,77,0.00,,,0.00,0.0,custom,2013-01-11 05:56:00,
2013-01-10 22:01:00,41.5,34.8,30.28,WNW,296,0.0,0.0,77,0.00,,,0.00,0.0,custom,2013-01-11 06:01:00,
2013-01-10 22:06:00,41.4,34.7,30.28,WNW,296,0.0,0.0,77,0.00,,,0.00,0.0,custom,2013-01-11 06:06:00,
2013-01-10 22:11:00,41.3,34.6,30.28,WNW,295,0.0,0.0,77,0.00,,,0.00,0.0,custom,2013-01-11 06:11:00,
2013-01-10 22:16:00,41.2,34.9,30.28,WNW,296,0.0,0.0,78,0.00,,,0.00,0.0,custom,2013-01-11 06:16:00,
2013-01-10 22:21:00,41.1,34.8,30.29,WNW,296,0.0,0.0,78,0.00,,,0.00,0.0,custom,2013-01-11 06:21:00,
2013-01-10 22:26:00,41.0,34.7,30.29,WNW,296,0.0,0.0,78,0.00,,,0.00,0.0,custom,2013-01-11 06:26:00,
2013-01-10 22:31:00,40.9,34.6,30.29,WNW,295,0.0,0.0,78,0.00,,,0.00,0.0,custom,2013-01-11 06:31:00,
2013-01-10 22:36:00,40.7,34.4,30.29,WNW,296,0.0,0.0,78,0.00,,,0.00,0.0,custom,2013-01-11 06:36:00,
2013-01-10 22:41:00,40.5,34.5,30.29,WNW,296,0.0,0.0,79,0.00,,,0.00,0.0,custom,2013-01-11 06:41:00,
2013-01-10 22:46:00,40.2,34.5,30.29,WNW,296,0.0,0.0,80,0.00,,,0.00,0.0,custom,2013-01-11 06:46:00,
2013-01-10 22:51:00,40.0,34.3,30.29,WNW,296,0.0,0.0,80,0.00,,,0.00,0.0,custom,2013-01-11 06:51:00,
2013-01-10 22:56:00,39.8,34.5,30.29,WNW,296,0.0,0.0,81,0.00,,,0.00,0.0,custom,2013-01-11 06:56:00,
2013-01-10 23:01:00,39.5,34.5,30.29,WNW,296,0.0,0.0,82,0.00,,,0.00,0.0,custom,2013-01-11 07:01:00,
2013-01-10 23:06:00,39.3,34.3,30.29,WNW,296,0.0,0.0,82,0.00,,,0.00,0.0,custom,2013-01-11 07:06:00,
2013-01-10 23:11:00,39.0,34.0,30.29,WNW,296,0.0,0.0,82,0.00,,,0.00,0.0,custom,2013-01-11 07:11:00,
2013-01-10 23:16:00,38.8,34.1,30.29,WNW,296,0.0,0.0,83,0.00,,,0.00,0.0,custom,2013-01-11 07:16:00,
2013-01-10 23:21:00,38.5,33.8,30.29,WNW,296,0.0,0.0,83,0.00,,,0.00,0.0,custom,2013-01-11 07:21:00,
2013-01-10 23:26:00,38.3,33.9,30.29,WNW,296,0.0,0.0,84,0.00,,,0.00,0.0,custom,2013-01-11 07:26:00,
2013-01-10 23:31:00,38.2,33.8,30.29,WNW,296,0.0,0.0,84,0.00,,,0.00,0.0,custom,2013-01-11 07:31:00,
2013-01-10 23:36:00,38.0,33.6,30.29,WNW,296,0.0,0.0,84,0.00,,,0.00,0.0,custom,2013-01-11 07:36:00,
2013-01-10 23:41:00,37.9,33.8,30.30,WNW,296,0.0,0.0,85,0.00,,,0.00,0.0,custom,2013-01-11 07:41:00,
2013-01-10 23:46:00,37.7,33.6,30.30,WNW,295,0.0,0.0,85,0.00,,,0.00,0.0,custom,2013-01-11 07:46:00,
2013-01-10 23:51:00,37.6,33.5,30.30,WNW,296,0.0,0.0,85,0.00,,,0.00,0.0,custom,2013-01-11 07:51:00,
2013-01-10 23:56:00,37.5,33.7,30.30,WNW,296,0.0,0.0,86,0.00,,,0.00,0.0,custom,2013-01-11 07:56:00,